Alexander, Maine
Current Conditions -  °F | °C
As of 2:15 PM on Saturday 20 Dec 2014 (Local Time) from KBHB Reporting Station
Overcast Overcast  
Wind Chill: 19°   Ceiling: 1600
Heat Index: 27°   Visibility: 10mi
Dew Point: 23°   Wind: 7mph
Humidity: 86%   Direction: 10°N
Pressure: 30.31"   Gusts: NA
Location:  45.0659°N, 67.4987°W
Report Text: KBHB 201915Z AUTO 01006KT 10SM OVC016 M03/M05 A3031 RMK AO1
Loading
Personal Weather Stations






























Interactive Weather Map New forecast layout! Learn more

10-Day Weather Forecast

Advertisements
Track Severe Weather on mobile